Jackson, SC (29831)

12:16 PM EST on February 13, 2016 (GMT -0500)
Pine Log Rd & Storm Branch Rd | | Change Station
CLOSE
Current Station
Personal Weather Station
Location: Beech Island, SC
Elevation: 472 ft
Nearby Weather Stations

Elev 472 ft 33.46 °N, 81.85 °W | Updated 7 minutes ago

Clear
Clear
46.8 °F
Feels Like 44 °F
N
5.8
Wind Variable Wind from WSW

Today
High -- | Low -- °F
--% Chance of Precip.
Yesterday
High -- | Low -- °F
Precip. -- in
Pressure 30.32 in
Visibility 10.0 miles
Clouds Clear
Windchill 44 °F
Dew Point 25 °F
Humidity 42%
Rainfall 0.00 in
Snow Depth Not available.
7:13 AM 6:09 PM
Waxing Crescent, 32% visible
METAR KAGS 131653Z 29007KT 10SM CLR 07/M07 A3032 RMK AO2 SLP267 T00721072
Pressure 30.32 in
Visibility 10.0 miles
Clouds Clear
Windchill 44 °F
Dew Point 25 °F
Humidity 42%
Rainfall 0.00 in
Snow Depth Not available.
7:13 AM 6:09 PM
Waxing Crescent, 32% visible
METAR KAGS 131653Z 29007KT 10SM CLR 07/M07 A3032 RMK AO2 SLP267 T00721072

10-Day Weather Forecast

Almanac

Astronomy

Feb. 13, 2016 Rise Set
Actual Time
Civil Twilight
Nautical Twilight
Astronomical Twilight
Moon
Length of Visible Light
Length of Day
Tomorrow will be .
, % of the Moon is Illuminated

Today's Extremes

State Highs State Lows

Community

WunderPhotos

Upload Photos

1,892,615 photos uploaded!

WunderBlog® & News

Nearby

Air Quality

  Air Quality AQ Index Pollutant
Not available.

Snow Depth

Station Depth Elevation

Earthquake Activity

City Distance Mag. Time & Date
Minimum magnitude displayed is 2.5.

Coastal Water Temperatures

Place Temperature

Stations

Nearby Weather Stations

Station Location Temp. Windchill Dew Point Humidity Wind Precip. Elev Updated Type
                   

Watches & Warnings

There are currently no watches in effect.